createdAt,value
2022-08-03T00:02:18.667Z,11.07
2022-08-03T00:04:46.336Z,15.80
2022-08-03T00:07:13.768Z,16.20
2022-08-03T00:09:41.373Z,11.77
2022-08-03T00:12:09.164Z,13.45
2022-08-03T00:14:36.896Z,14.32
2022-08-03T00:17:04.586Z,15.77
2022-08-03T00:19:32.083Z,12.55
2022-08-03T00:21:59.831Z,11.32
2022-08-03T00:24:27.723Z,17.00
2022-08-03T00:26:55.408Z,16.02
2022-08-03T00:29:23.164Z,13.55
2022-08-03T00:31:52.354Z,15.38
2022-08-03T00:34:21.779Z,14.02
2022-08-03T00:37:07.988Z,13.70
2022-08-03T00:39:35.414Z,17.63
2022-08-03T00:42:05.179Z,11.70
2022-08-03T00:44:40.823Z,10.13
2022-08-03T00:47:10.280Z,13.23
2022-08-03T00:49:42.005Z,10.73
2022-08-03T00:52:10.926Z,14.70
2022-08-03T00:54:39.434Z,11.07
2022-08-03T00:57:07.788Z,11.68
2022-08-03T00:59:35.465Z,12.15
2022-08-03T01:02:03.379Z,10.15
2022-08-03T01:04:31.225Z,10.40
2022-08-03T01:07:30.711Z,11.60
2022-08-03T01:10:23.941Z,9.77
2022-08-03T01:14:01.103Z,12.65
2022-08-03T01:16:25.819Z,11.40
2022-08-03T01:19:20.932Z,10.98
2022-08-03T01:22:03.641Z,10.30
2022-08-03T01:25:08.511Z,8.98
2022-08-03T01:28:08.811Z,11.85
2022-08-03T01:30:43.264Z,9.93
2022-08-03T01:33:20.199Z,10.25
2022-08-03T01:35:55.207Z,11.43
2022-08-03T01:38:27.181Z,9.98
2022-08-03T01:40:56.687Z,11.07
2022-08-03T01:44:28.304Z,10.20
2022-08-03T01:46:18.957Z,9.68
2022-08-03T01:48:48.974Z,9.85
2022-08-03T01:51:20.111Z,9.50
2022-08-03T01:53:51.098Z,10.90
2022-08-03T01:56:22.360Z,11.80
2022-08-03T01:58:52.715Z,10.88
2022-08-03T02:01:23.000Z,12.43
2022-08-03T02:03:59.769Z,10.70
2022-08-03T02:07:02.918Z,12.70
2022-08-03T02:09:21.981Z,10.98
2022-08-03T02:11:52.060Z,8.35
2022-08-03T02:14:21.265Z,10.20
2022-08-03T02:16:50.605Z,11.20
2022-08-03T02:19:19.544Z,12.90
2022-08-03T02:21:57.272Z,9.77
2022-08-03T02:24:30.093Z,10.07
2022-08-03T02:26:59.271Z,11.23
2022-08-03T02:29:39.824Z,9.18
2022-08-03T02:32:17.812Z,8.93
2022-08-03T02:34:48.914Z,10.15
2022-08-03T02:37:22.428Z,9.95
2022-08-03T02:39:53.346Z,10.35
2022-08-03T02:42:23.490Z,12.25
2022-08-03T02:44:53.273Z,10.45
2022-08-03T02:47:22.307Z,13.88
2022-08-03T02:49:52.821Z,9.75
2022-08-03T02:52:23.262Z,12.07
2022-08-03T02:54:55.030Z,16.05
2022-08-03T02:57:24.860Z,10.55
2022-08-03T02:59:53.396Z,10.00
2022-08-03T03:02:22.746Z,12.60
2022-08-03T03:05:53.565Z,11.27
2022-08-03T03:07:51.990Z,14.45
2022-08-03T03:10:23.306Z,13.80
2022-08-03T03:12:55.877Z,14.63
2022-08-03T03:15:27.984Z,9.80
2022-08-03T03:17:57.013Z,12.25
2022-08-03T03:20:28.922Z,11.02
2022-08-03T03:23:00.280Z,10.85
2022-08-03T03:25:32.613Z,11.95
2022-08-03T03:28:01.452Z,11.45
2022-08-03T03:30:30.253Z,9.70
2022-08-03T03:32:59.328Z,10.20
2022-08-03T03:35:27.727Z,13.07
2022-08-03T03:37:55.615Z,11.60
2022-08-03T03:40:23.740Z,10.38
2022-08-03T03:42:51.676Z,10.70
2022-08-03T03:45:22.546Z,13.27
2022-08-03T03:47:50.355Z,12.45
2022-08-03T03:50:19.341Z,11.93
2022-08-03T03:52:46.889Z,12.55
2022-08-03T03:55:18.470Z,10.65
2022-08-03T03:57:46.621Z,9.35
2022-08-03T04:00:15.555Z,11.23
2022-08-03T04:02:43.309Z,11.10
2022-08-03T04:05:30.029Z,12.02
2022-08-03T04:08:26.290Z,14.25
2022-08-03T04:11:18.069Z,11.13
2022-08-03T04:14:05.208Z,10.38
2022-08-03T04:16:41.893Z,11.20
2022-08-03T04:19:21.169Z,12.05
2022-08-03T04:21:56.932Z,11.32
2022-08-03T04:24:30.366Z,8.88
2022-08-03T04:26:59.578Z,11.57
2022-08-03T04:29:33.024Z,13.45
2022-08-03T04:32:01.624Z,13.05
2022-08-03T04:34:31.026Z,10.15
2022-08-03T04:37:01.601Z,15.38
2022-08-03T04:39:32.039Z,12.02
2022-08-03T04:42:24.117Z,12.57
2022-08-03T04:44:58.959Z,9.27
2022-08-03T04:47:31.132Z,10.10
2022-08-03T04:50:01.119Z,9.10
2022-08-03T04:52:28.707Z,9.73
2022-08-03T04:54:56.646Z,9.68
2022-08-03T04:57:24.285Z,9.98
2022-08-03T05:00:02.534Z,11.43
2022-08-03T05:02:32.144Z,12.38
2022-08-03T05:05:00.014Z,9.75
2022-08-03T05:07:35.465Z,12.88
2022-08-03T05:10:15.035Z,10.80
2022-08-03T05:12:48.722Z,9.40
2022-08-03T05:15:16.533Z,11.90
2022-08-03T05:17:44.357Z,11.85
2022-08-03T05:20:12.488Z,12.80
2022-08-03T05:22:40.317Z,12.18
2022-08-03T05:25:08.276Z,10.70
2022-08-03T05:27:36.087Z,12.07
2022-08-03T05:30:27.337Z,14.68
2022-08-03T05:32:51.595Z,18.10
2022-08-03T05:36:01.124Z,12.73
2022-08-03T05:38:07.874Z,14.40
2022-08-03T05:40:37.059Z,18.67
2022-08-03T05:43:04.664Z,15.82
2022-08-03T05:45:32.430Z,12.00
2022-08-03T05:48:00.223Z,12.45
2022-08-03T05:50:27.800Z,11.88
2022-08-03T05:52:57.705Z,11.80
2022-08-03T05:55:25.641Z,13.50
2022-08-03T05:57:53.132Z,10.98
2022-08-03T06:00:24.309Z,13.05
2022-08-03T06:02:53.558Z,11.77
2022-08-03T06:05:20.963Z,14.55
2022-08-03T06:07:48.413Z,12.35
2022-08-03T06:10:36.260Z,12.75
2022-08-03T06:13:03.585Z,11.93
2022-08-03T06:15:33.313Z,12.02
2022-08-03T06:18:02.229Z,13.82
2022-08-03T06:20:30.264Z,11.70
2022-08-03T06:23:00.349Z,12.65
2022-08-03T06:25:28.939Z,13.40
2022-08-03T06:27:56.574Z,14.88
2022-08-03T06:30:24.694Z,12.45
2022-08-03T06:32:52.556Z,12.68
2022-08-03T06:35:20.188Z,15.57
2022-08-03T06:37:50.225Z,13.15
2022-08-03T06:40:23.650Z,10.43
2022-08-03T06:45:19.746Z,12.85
2022-08-03T06:47:47.245Z,11.07
2022-08-03T06:50:16.922Z,12.02
2022-08-03T06:52:47.234Z,12.63
2022-08-03T06:55:14.658Z,15.18
2022-08-03T06:57:42.532Z,14.05
2022-08-03T07:00:12.495Z,13.05
2022-08-03T07:02:40.750Z,11.07
2022-08-03T07:05:09.715Z,11.15
2022-08-03T07:07:38.021Z,11.63
2022-08-03T07:10:07.136Z,9.40
2022-08-03T07:12:35.928Z,13.48
2022-08-03T07:15:04.939Z,9.95
2022-08-03T07:17:36.211Z,11.05
2022-08-03T07:20:07.344Z,10.75
2022-08-03T07:22:35.564Z,13.32
2022-08-03T07:25:03.731Z,10.75
2022-08-03T07:27:31.393Z,10.10
2022-08-03T07:29:59.377Z,11.38
2022-08-03T07:32:28.488Z,11.52
2022-08-03T07:35:00.492Z,10.80
2022-08-03T07:37:29.740Z,13.35
2022-08-03T07:39:57.984Z,15.23
2022-08-03T07:42:26.573Z,13.88
2022-08-03T07:44:54.288Z,13.90
2022-08-03T07:47:24.872Z,12.68
2022-08-03T07:49:52.789Z,15.32
2022-08-03T07:52:41.004Z,13.48
2022-08-03T07:55:09.172Z,13.07
2022-08-03T07:57:37.076Z,12.00
2022-08-03T08:00:08.930Z,14.75
2022-08-03T08:02:36.345Z,13.38
2022-08-03T08:05:05.917Z,15.25
2022-08-03T08:07:33.883Z,14.13
2022-08-03T08:10:01.357Z,12.27
2022-08-03T08:12:29.008Z,11.90
2022-08-03T08:14:56.965Z,14.68
2022-08-03T08:17:24.714Z,12.48
2022-08-03T08:19:53.335Z,14.90
2022-08-03T08:22:30.082Z,13.38
2022-08-03T08:24:59.630Z,14.80
2022-08-03T08:28:29.875Z,15.63
2022-08-03T08:30:22.108Z,11.85
2022-08-03T08:32:50.579Z,11.95
2022-08-03T08:35:18.777Z,14.50
2022-08-03T08:37:51.000Z,12.93
2022-08-03T08:40:22.416Z,12.90
2022-08-03T08:42:59.055Z,17.63
2022-08-03T08:45:27.597Z,17.15
2022-08-03T08:48:01.683Z,13.15
2022-08-03T08:50:31.802Z,15.23
2022-08-03T08:53:03.219Z,16.63
2022-08-03T08:55:58.642Z,17.08
2022-08-03T08:58:22.309Z,18.45
2022-08-03T09:00:50.789Z,14.38
2022-08-03T09:03:25.245Z,15.43
2022-08-03T09:06:02.201Z,14.65
2022-08-03T09:08:31.480Z,15.40
2022-08-03T09:11:00.201Z,15.55
2022-08-03T09:13:29.007Z,14.02
2022-08-03T09:16:17.449Z,15.05
2022-08-03T09:18:48.255Z,15.57
2022-08-03T09:21:31.617Z,18.95
2022-08-03T09:24:04.770Z,17.35
2022-08-03T09:26:35.837Z,14.57
2022-08-03T09:29:08.166Z,14.10
2022-08-03T09:31:45.709Z,16.73
2022-08-03T09:34:16.187Z,16.77
2022-08-03T09:36:48.870Z,15.10
2022-08-03T09:39:28.638Z,16.35
2022-08-03T09:42:14.461Z,15.52
2022-08-03T09:44:52.406Z,16.65
2022-08-03T09:47:33.742Z,16.17
2022-08-03T09:50:04.521Z,14.80
2022-08-03T09:52:52.378Z,17.50
2022-08-03T09:56:32.970Z,19.95
2022-08-03T09:58:10.339Z,19.05
2022-08-03T10:01:01.253Z,17.05
2022-08-03T10:03:31.007Z,18.88
2022-08-03T10:06:00.066Z,18.63
2022-08-03T10:08:27.730Z,16.65
2022-08-03T10:10:55.346Z,18.55
2022-08-03T10:13:23.484Z,15.50
2022-08-03T10:16:21.564Z,18.15
2022-08-03T10:18:40.296Z,19.08
2022-08-03T10:21:14.150Z,17.13
2022-08-03T10:23:42.384Z,16.85
2022-08-03T10:26:16.352Z,16.30
2022-08-03T10:28:49.633Z,16.63
2022-08-03T10:31:20.309Z,15.80
2022-08-03T10:33:53.214Z,16.88
2022-08-03T10:36:27.515Z,16.40
2022-08-03T10:38:57.091Z,17.75
2022-08-03T10:41:31.481Z,18.90
2022-08-03T10:46:30.638Z,15.32
2022-08-03T10:48:58.793Z,15.68
2022-08-03T10:51:31.951Z,16.45
2022-08-03T10:54:01.893Z,15.93
2022-08-03T10:56:51.329Z,17.20
2022-08-03T10:59:27.425Z,17.65
2022-08-03T11:01:59.931Z,15.65
2022-08-03T11:04:29.558Z,15.60
2022-08-03T11:07:19.440Z,18.90
2022-08-03T11:09:56.852Z,15.60
2022-08-03T11:12:32.911Z,17.42
2022-08-03T11:15:06.158Z,18.45
2022-08-03T11:17:46.788Z,15.15
2022-08-03T11:20:56.408Z,14.38
2022-08-03T11:24:03.622Z,16.70
2022-08-03T11:26:34.564Z,16.35
2022-08-03T11:29:31.814Z,14.05
2022-08-03T11:31:59.423Z,14.60
2022-08-03T11:34:27.216Z,14.45
2022-08-03T11:37:33.352Z,15.23
2022-08-03T11:40:02.716Z,15.73
2022-08-03T11:42:35.159Z,16.33
2022-08-03T11:45:08.926Z,14.63
2022-08-03T11:47:50.199Z,16.65
2022-08-03T11:50:21.163Z,13.90
2022-08-03T11:52:49.701Z,16.05
2022-08-03T11:55:21.587Z,14.57
2022-08-03T11:59:16.666Z,16.92
2022-08-03T12:00:37.509Z,12.38
2022-08-03T12:03:16.403Z,16.08
2022-08-03T12:05:52.546Z,13.48
2022-08-03T12:08:26.568Z,14.82
2022-08-03T12:10:57.110Z,12.82
2022-08-03T12:14:30.065Z,13.20
2022-08-03T12:16:23.994Z,14.82
2022-08-03T12:18:59.539Z,11.63
2022-08-03T12:21:28.029Z,11.70
2022-08-03T12:24:04.704Z,12.90
2022-08-03T12:26:44.412Z,13.75
2022-08-03T12:29:26.321Z,11.90
2022-08-03T12:31:53.905Z,10.75
2022-08-03T12:34:21.517Z,11.15
2022-08-03T12:36:56.105Z,10.63
2022-08-03T12:39:27.489Z,11.13
2022-08-03T12:41:57.004Z,10.40
2022-08-03T12:44:32.632Z,11.68
2022-08-03T12:47:02.233Z,12.68
2022-08-03T12:49:53.966Z,11.65
2022-08-03T12:52:23.023Z,10.45
2022-08-03T12:54:58.256Z,12.52
2022-08-03T12:57:40.146Z,10.32
2022-08-03T13:00:21.774Z,13.27
2022-08-03T13:03:39.547Z,11.60
2022-08-03T13:05:53.554Z,10.05
2022-08-03T13:08:24.125Z,9.38
2022-08-03T13:10:51.884Z,11.40
2022-08-03T13:13:38.543Z,10.95
2022-08-03T13:16:06.270Z,10.23
2022-08-03T13:18:33.693Z,11.80
2022-08-03T13:21:02.262Z,10.45
2022-08-03T13:23:48.785Z,10.90
2022-08-03T13:26:16.542Z,10.65
2022-08-03T13:28:43.996Z,10.93
2022-08-03T13:31:11.500Z,11.43
2022-08-03T13:33:40.433Z,11.32
2022-08-03T13:36:08.074Z,11.65
2022-08-03T13:38:35.750Z,9.30
2022-08-03T13:41:05.041Z,13.90
2022-08-03T13:43:32.630Z,12.55
2022-08-03T13:46:00.126Z,11.77
2022-08-03T13:48:37.291Z,13.57
2022-08-03T13:51:21.759Z,9.20
2022-08-03T13:53:52.218Z,12.52
2022-08-03T13:56:19.775Z,10.68
2022-08-03T13:58:47.197Z,11.38
2022-08-03T14:01:14.931Z,8.98
2022-08-03T14:03:42.402Z,9.13
2022-08-03T14:06:09.876Z,11.07
2022-08-03T14:08:37.541Z,10.93
2022-08-03T14:11:05.109Z,9.77
2022-08-03T14:13:32.569Z,10.70
2022-08-03T14:16:00.230Z,15.45
2022-08-03T14:18:33.880Z,11.45
2022-08-03T14:21:06.230Z,11.90
2022-08-03T14:23:35.121Z,10.38
2022-08-03T14:26:03.537Z,14.45
2022-08-03T14:28:31.340Z,11.88
2022-08-03T14:30:59.336Z,9.38
2022-08-03T14:33:28.425Z,9.88
2022-08-03T14:35:55.977Z,13.80
2022-08-03T14:38:25.276Z,13.27
2022-08-03T14:40:53.194Z,9.88
2022-08-03T14:43:21.564Z,12.43
2022-08-03T14:45:53.590Z,9.45
2022-08-03T14:50:29.667Z,10.07
2022-08-03T14:51:10.287Z,12.35
2022-08-03T14:53:38.104Z,18.70
2022-08-03T14:56:10.131Z,11.68
2022-08-03T14:58:38.938Z,11.00
2022-08-03T15:02:06.488Z,8.40
2022-08-03T15:03:54.954Z,11.15
2022-08-03T15:06:23.048Z,10.68
2022-08-03T15:09:22.718Z,10.85
2022-08-03T15:11:44.805Z,9.85
2022-08-03T15:14:15.193Z,8.73
2022-08-03T15:16:42.890Z,7.78
2022-08-03T15:20:00.466Z,9.65
2022-08-03T15:21:58.209Z,7.75
2022-08-03T15:24:29.565Z,6.68
2022-08-03T15:26:57.158Z,9.80
2022-08-03T15:30:08.983Z,8.95
2022-08-03T15:32:12.712Z,6.60
2022-08-03T15:34:40.936Z,9.40
2022-08-03T15:37:19.863Z,9.60
2022-08-03T15:39:59.218Z,8.80
2022-08-03T15:42:33.260Z,6.70
2022-08-03T15:45:00.872Z,7.75
2022-08-03T15:47:28.631Z,7.68
2022-08-03T15:49:56.156Z,8.65
2022-08-03T15:52:23.718Z,7.45
2022-08-03T15:54:51.368Z,6.30
2022-08-03T15:57:19.130Z,8.85
2022-08-03T15:59:47.282Z,6.75
2022-08-03T16:02:15.286Z,10.75
2022-08-03T16:04:42.702Z,7.25
2022-08-03T16:07:12.895Z,7.50
2022-08-03T16:09:43.869Z,6.85
2022-08-03T16:12:16.046Z,7.65
2022-08-03T16:14:52.861Z,7.65
2022-08-03T16:17:22.091Z,7.18
2022-08-03T16:19:54.771Z,10.93
2022-08-03T16:22:24.041Z,8.10
2022-08-03T16:24:53.341Z,8.40
2022-08-03T16:27:37.367Z,7.85
2022-08-03T16:30:12.028Z,9.43
2022-08-03T16:32:39.870Z,8.35
2022-08-03T16:35:08.178Z,7.47
2022-08-03T16:37:38.786Z,7.82
2022-08-03T16:40:09.362Z,9.63
2022-08-03T16:42:47.209Z,8.05
2022-08-03T16:45:14.762Z,8.57
2022-08-03T16:47:42.392Z,8.18
2022-08-03T16:50:15.755Z,9.80
2022-08-03T16:52:48.413Z,8.68
2022-08-03T16:55:43.520Z,7.85
2022-08-03T16:58:06.837Z,7.80
2022-08-03T17:00:41.207Z,9.23
2022-08-03T17:05:49.962Z,8.40
2022-08-03T17:08:26.249Z,10.63
2022-08-03T17:10:55.262Z,9.52
2022-08-03T17:13:27.657Z,9.25
2022-08-03T17:16:10.388Z,11.10
2022-08-03T17:18:47.583Z,9.70
2022-08-03T17:21:17.372Z,11.50
2022-08-03T17:23:57.963Z,10.13
2022-08-03T17:26:30.578Z,14.68
2022-08-03T17:29:12.713Z,9.48
2022-08-03T17:31:48.764Z,9.35
2022-08-03T17:34:19.540Z,10.45
2022-08-03T17:37:05.552Z,11.57
2022-08-03T17:39:58.861Z,13.15
2022-08-03T17:42:31.187Z,11.60
2022-08-03T17:45:02.558Z,10.20
2022-08-03T17:47:42.496Z,8.80
2022-08-03T17:50:25.124Z,9.10
2022-08-03T17:53:15.532Z,9.55
2022-08-03T17:56:44.890Z,10.70
2022-08-03T17:59:51.874Z,10.65
2022-08-03T18:02:36.452Z,10.30
2022-08-03T18:05:16.463Z,9.55
2022-08-03T18:13:31.017Z,11.15
2022-08-03T18:16:04.485Z,8.98
2022-08-03T18:18:40.616Z,12.55
2022-08-03T18:21:17.204Z,13.20
2022-08-03T18:23:45.977Z,11.50
2022-08-03T18:26:19.080Z,10.13
2022-08-03T18:28:50.644Z,11.50
2022-08-03T18:31:59.555Z,14.88
2022-08-03T18:34:20.035Z,10.95
2022-08-03T18:36:56.089Z,9.80
2022-08-03T18:39:24.935Z,13.00
2022-08-03T18:41:52.355Z,14.95
2022-08-03T18:44:53.140Z,10.52
2022-08-03T18:47:50.786Z,18.55
2022-08-03T18:50:26.793Z,20.17
2022-08-03T18:54:04.059Z,17.85
2022-08-03T18:56:32.381Z,16.23
2022-08-03T18:59:18.576Z,19.27
2022-08-03T19:02:05.421Z,19.05
2022-08-03T19:04:36.583Z,22.40
2022-08-03T19:07:09.218Z,18.10
2022-08-03T19:09:52.785Z,25.42
2022-08-03T19:12:39.862Z,20.60
2022-08-03T19:15:12.710Z,20.58
2022-08-03T19:17:52.737Z,17.10
2022-08-03T19:20:28.204Z,16.15
2022-08-03T19:22:58.351Z,18.40
2022-08-03T19:25:33.356Z,17.77
2022-08-03T19:28:07.242Z,16.33
2022-08-03T19:30:39.132Z,13.95
2022-08-03T19:33:14.047Z,17.25
2022-08-03T19:35:46.685Z,15.38
2022-08-03T19:38:28.803Z,14.65
2022-08-03T19:43:57.655Z,19.02
2022-08-03T19:46:31.017Z,17.30
2022-08-03T19:49:10.411Z,16.58
2022-08-03T19:52:01.083Z,15.10
2022-08-03T19:54:52.989Z,16.95
2022-08-03T19:57:29.127Z,14.23
2022-08-03T19:59:57.202Z,14.50
2022-08-03T20:02:27.195Z,15.68
2022-08-03T20:04:57.233Z,15.07
2022-08-03T20:07:26.433Z,12.40
2022-08-03T20:09:56.331Z,17.08
2022-08-03T20:12:29.298Z,13.52
2022-08-03T20:14:58.186Z,15.25
2022-08-03T20:17:56.950Z,12.63
2022-08-03T20:20:20.970Z,12.90
2022-08-03T20:22:57.436Z,16.08
2022-08-03T20:25:38.549Z,17.23
2022-08-03T20:28:14.210Z,12.50
2022-08-03T20:30:47.215Z,11.07
2022-08-03T20:33:18.973Z,15.48
2022-08-03T20:35:49.206Z,12.65
2022-08-03T20:38:18.919Z,11.95
2022-08-03T20:40:48.282Z,13.32
2022-08-03T20:43:17.022Z,14.27
2022-08-03T20:46:00.172Z,16.08
2022-08-03T20:48:37.278Z,12.18
2022-08-03T20:51:06.013Z,14.75
2022-08-03T20:53:59.809Z,12.50
2022-08-03T20:56:33.957Z,14.35
2022-08-03T20:59:07.033Z,12.50
2022-08-03T21:01:44.262Z,14.25
2022-08-03T21:04:13.591Z,15.85
2022-08-03T21:06:53.093Z,12.93
2022-08-03T21:12:17.846Z,14.00
2022-08-03T21:12:56.881Z,8.57
2022-08-03T21:12:57.105Z,10.70
2022-08-03T21:13:02.694Z,16.33
2022-08-03T21:13:08.101Z,14.15
2022-08-03T21:15:06.352Z,12.15
2022-08-03T21:17:41.301Z,15.55
2022-08-03T21:20:11.105Z,14.23
2022-08-03T21:22:42.429Z,14.07
2022-08-03T21:25:13.040Z,14.75
2022-08-03T21:27:40.697Z,10.27
2022-08-03T21:30:10.473Z,10.98
2022-08-03T21:32:40.272Z,9.85
2022-08-03T21:35:10.566Z,11.65
2022-08-03T21:37:39.604Z,10.25
2022-08-03T21:40:10.673Z,13.77
2022-08-03T21:42:39.898Z,11.95
2022-08-03T21:45:16.601Z,12.05
2022-08-03T21:47:47.272Z,11.60
2022-08-03T21:50:15.777Z,10.25
2022-08-03T21:52:46.908Z,10.43
2022-08-03T21:55:20.324Z,11.90
2022-08-03T21:57:52.814Z,8.75
2022-08-03T22:00:23.142Z,12.15
2022-08-03T22:02:55.568Z,9.07
2022-08-03T22:05:42.723Z,10.32
2022-08-03T22:08:13.638Z,8.93
2022-08-03T22:10:44.376Z,9.55
2022-08-03T22:13:14.384Z,8.60
2022-08-03T22:15:42.646Z,10.93
2022-08-03T22:18:11.198Z,11.57
2022-08-03T22:20:38.768Z,12.38
2022-08-03T22:23:07.373Z,9.95
2022-08-03T22:25:39.347Z,10.23
2022-08-03T22:28:11.981Z,11.02
2022-08-03T22:30:41.362Z,10.88
2022-08-03T22:33:12.087Z,9.27
2022-08-03T22:35:47.870Z,8.23
2022-08-03T22:38:17.674Z,8.15
2022-08-03T22:40:48.348Z,7.88
2022-08-03T22:43:16.809Z,8.90
2022-08-03T22:46:10.239Z,9.70
2022-08-03T22:48:41.140Z,7.57
2022-08-03T22:51:10.143Z,10.98
2022-08-03T22:53:39.492Z,9.73
2022-08-03T22:56:07.704Z,9.60
2022-08-03T22:58:35.847Z,10.30
2022-08-03T23:01:06.788Z,8.07
2022-08-03T23:04:00.083Z,9.82
2022-08-03T23:06:26.990Z,10.45
2022-08-03T23:08:54.953Z,6.90
2022-08-03T23:11:24.364Z,8.68
2022-08-03T23:13:54.104Z,10.65
2022-08-03T23:16:29.033Z,9.52
2022-08-03T23:18:59.563Z,10.27
2022-08-03T23:21:53.365Z,8.60
2022-08-03T23:24:25.255Z,8.02
2022-08-03T23:26:58.393Z,7.80
2022-08-03T23:29:26.437Z,8.25
2022-08-03T23:31:54.953Z,7.60
2022-08-03T23:34:43.131Z,10.45
2022-08-03T23:37:13.905Z,10.30
2022-08-03T23:39:46.052Z,9.73
2022-08-03T23:42:16.609Z,8.40
2022-08-03T23:44:45.641Z,8.23
2022-08-03T23:47:13.940Z,7.97
2022-08-03T23:49:41.629Z,9.85
2022-08-03T23:52:34.549Z,9.07
2022-08-03T23:55:16.081Z,13.40
2022-08-03T23:58:01.417Z,8.77
